sensor_id;sensor_type;location;lat;lon;timestamp;P1;durP1;ratioP1;P2;durP2;ratioP2
25932;SDS011;13731;51.166;4.474;2023-03-07T00:01:43;118.20;;;111.88;;
25932;SDS011;13731;51.166;4.474;2023-03-07T00:04:09;132.55;;;125.50;;
25932;SDS011;13731;51.166;4.474;2023-03-07T00:06:35;120.05;;;113.10;;
25932;SDS011;13731;51.166;4.474;2023-03-07T00:09:00;114.43;;;108.55;;
25932;SDS011;13731;51.166;4.474;2023-03-07T00:11:29;139.02;;;131.60;;
25932;SDS011;13731;51.166;4.474;2023-03-07T00:13:55;127.80;;;121.15;;
25932;SDS011;13731;51.166;4.474;2023-03-07T00:16:22;173.45;;;161.77;;
25932;SDS011;13731;51.166;4.474;2023-03-07T00:18:49;117.88;;;111.22;;
25932;SDS011;13731;51.166;4.474;2023-03-07T00:21:17;129.75;;;122.90;;
25932;SDS011;13731;51.166;4.474;2023-03-07T00:23:44;122.25;;;115.65;;
25932;SDS011;13731;51.166;4.474;2023-03-07T00:26:12;121.55;;;114.93;;
25932;SDS011;13731;51.166;4.474;2023-03-07T00:28:41;117.95;;;111.72;;
25932;SDS011;13731;51.166;4.474;2023-03-07T00:31:08;124.38;;;117.70;;
25932;SDS011;13731;51.166;4.474;2023-03-07T00:33:35;130.82;;;123.80;;
25932;SDS011;13731;51.166;4.474;2023-03-07T00:36:06;125.25;;;118.68;;
25932;SDS011;13731;51.166;4.474;2023-03-07T00:38:35;154.93;;;146.55;;
25932;SDS011;13731;51.166;4.474;2023-03-07T00:41:02;127.63;;;120.85;;
25932;SDS011;13731;51.166;4.474;2023-03-07T00:43:30;133.75;;;126.00;;
25932;SDS011;13731;51.166;4.474;2023-03-07T00:45:56;135.52;;;128.60;;
25932;SDS011;13731;51.166;4.474;2023-03-07T00:48:22;136.38;;;129.40;;
25932;SDS011;13731;51.166;4.474;2023-03-07T00:50:49;131.60;;;124.15;;
25932;SDS011;13731;51.166;4.474;2023-03-07T00:53:16;131.20;;;124.13;;
25932;SDS011;13731;51.166;4.474;2023-03-07T00:55:59;133.38;;;126.30;;
25932;SDS011;13731;51.166;4.474;2023-03-07T00:58:30;207.10;;;194.57;;
25932;SDS011;13731;51.166;4.474;2023-03-07T01:00:57;129.68;;;122.40;;
25932;SDS011;13731;51.166;4.474;2023-03-07T01:03:25;137.25;;;129.88;;
25932;SDS011;13731;51.166;4.474;2023-03-07T01:05:51;146.00;;;138.15;;
25932;SDS011;13731;51.166;4.474;2023-03-07T01:08:19;124.15;;;117.68;;
25932;SDS011;13731;51.166;4.474;2023-03-07T01:10:46;138.82;;;131.38;;
25932;SDS011;13731;51.166;4.474;2023-03-07T01:13:16;150.15;;;141.57;;
25932;SDS011;13731;51.166;4.474;2023-03-07T01:15:43;160.10;;;151.48;;
25932;SDS011;13731;51.166;4.474;2023-03-07T01:18:10;129.65;;;122.88;;
25932;SDS011;13731;51.166;4.474;2023-03-07T01:20:37;127.97;;;121.20;;
25932;SDS011;13731;51.166;4.474;2023-03-07T01:23:05;142.55;;;134.65;;
25932;SDS011;13731;51.166;4.474;2023-03-07T01:25:35;140.27;;;132.52;;
25932;SDS011;13731;51.166;4.474;2023-03-07T01:28:03;138.85;;;131.00;;
25932;SDS011;13731;51.166;4.474;2023-03-07T01:30:29;131.23;;;124.13;;
25932;SDS011;13731;51.166;4.474;2023-03-07T01:32:56;166.35;;;156.80;;
25932;SDS011;13731;51.166;4.474;2023-03-07T01:35:23;136.38;;;129.25;;
25932;SDS011;13731;51.166;4.474;2023-03-07T01:37:50;140.15;;;132.23;;
25932;SDS011;13731;51.166;4.474;2023-03-07T01:40:18;132.38;;;125.07;;
25932;SDS011;13731;51.166;4.474;2023-03-07T01:42:47;132.15;;;125.05;;
25932;SDS011;13731;51.166;4.474;2023-03-07T01:47:46;159.57;;;150.73;;
25932;SDS011;13731;51.166;4.474;2023-03-07T01:50:14;146.52;;;138.18;;
25932;SDS011;13731;51.166;4.474;2023-03-07T01:52:45;142.48;;;134.55;;
25932;SDS011;13731;51.166;4.474;2023-03-07T01:55:33;146.75;;;138.65;;
25932;SDS011;13731;51.166;4.474;2023-03-07T01:58:11;150.05;;;141.65;;
25932;SDS011;13731;51.166;4.474;2023-03-07T02:00:39;163.75;;;154.93;;
25932;SDS011;13731;51.166;4.474;2023-03-07T02:05:39;160.60;;;151.88;;
25932;SDS011;13731;51.166;4.474;2023-03-07T02:08:10;169.88;;;160.50;;
25932;SDS011;13731;51.166;4.474;2023-03-07T02:10:39;224.80;;;211.45;;
25932;SDS011;13731;51.166;4.474;2023-03-07T02:13:06;149.23;;;141.07;;
25932;SDS011;13731;51.166;4.474;2023-03-07T02:15:33;156.52;;;147.98;;
25932;SDS011;13731;51.166;4.474;2023-03-07T02:17:59;171.90;;;162.55;;
25932;SDS011;13731;51.166;4.474;2023-03-07T02:23:08;199.40;;;188.27;;
25932;SDS011;13731;51.166;4.474;2023-03-07T02:26:00;166.50;;;157.05;;
25932;SDS011;13731;51.166;4.474;2023-03-07T02:28:29;158.23;;;149.65;;
25932;SDS011;13731;51.166;4.474;2023-03-07T02:31:05;158.35;;;149.50;;
25932;SDS011;13731;51.166;4.474;2023-03-07T02:33:33;147.87;;;139.97;;
25932;SDS011;13731;51.166;4.474;2023-03-07T02:36:06;167.57;;;158.52;;
25932;SDS011;13731;51.166;4.474;2023-03-07T02:38:40;164.45;;;155.63;;
25932;SDS011;13731;51.166;4.474;2023-03-07T02:41:10;169.77;;;160.63;;
25932;SDS011;13731;51.166;4.474;2023-03-07T02:43:37;163.20;;;154.55;;
25932;SDS011;13731;51.166;4.474;2023-03-07T02:46:04;303.13;;;281.88;;
25932;SDS011;13731;51.166;4.474;2023-03-07T02:48:30;160.00;;;150.80;;
25932;SDS011;13731;51.166;4.474;2023-03-07T02:50:57;180.45;;;170.80;;
25932;SDS011;13731;51.166;4.474;2023-03-07T02:53:24;144.85;;;137.10;;
25932;SDS011;13731;51.166;4.474;2023-03-07T02:55:50;148.52;;;140.35;;
25932;SDS011;13731;51.166;4.474;2023-03-07T02:58:16;164.02;;;154.77;;
25932;SDS011;13731;51.166;4.474;2023-03-07T03:00:42;160.90;;;151.93;;
25932;SDS011;13731;51.166;4.474;2023-03-07T03:03:07;167.25;;;157.65;;
25932;SDS011;13731;51.166;4.474;2023-03-07T03:05:34;168.55;;;159.00;;
25932;SDS011;13731;51.166;4.474;2023-03-07T03:08:00;163.23;;;153.70;;
25932;SDS011;13731;51.166;4.474;2023-03-07T03:10:28;196.23;;;185.13;;
25932;SDS011;13731;51.166;4.474;2023-03-07T03:12:56;167.00;;;157.43;;
25932;SDS011;13731;51.166;4.474;2023-03-07T03:15:22;156.10;;;146.93;;
25932;SDS011;13731;51.166;4.474;2023-03-07T03:17:48;220.05;;;207.35;;
25932;SDS011;13731;51.166;4.474;2023-03-07T03:20:17;168.13;;;158.63;;
25932;SDS011;13731;51.166;4.474;2023-03-07T03:22:43;154.43;;;145.60;;
25932;SDS011;13731;51.166;4.474;2023-03-07T03:25:10;163.20;;;154.07;;
25932;SDS011;13731;51.166;4.474;2023-03-07T03:30:07;156.63;;;148.05;;
25932;SDS011;13731;51.166;4.474;2023-03-07T03:32:38;173.23;;;163.40;;
25932;SDS011;13731;51.166;4.474;2023-03-07T03:35:06;154.45;;;145.82;;
25932;SDS011;13731;51.166;4.474;2023-03-07T03:37:33;169.15;;;159.65;;
25932;SDS011;13731;51.166;4.474;2023-03-07T03:40:02;171.85;;;161.98;;
25932;SDS011;13731;51.166;4.474;2023-03-07T03:42:31;176.00;;;166.13;;
25932;SDS011;13731;51.166;4.474;2023-03-07T03:44:59;179.45;;;169.07;;
25932;SDS011;13731;51.166;4.474;2023-03-07T03:47:25;169.70;;;160.07;;
25932;SDS011;13731;51.166;4.474;2023-03-07T03:49:51;166.15;;;156.23;;
25932;SDS011;13731;51.166;4.474;2023-03-07T03:52:17;178.63;;;168.30;;
25932;SDS011;13731;51.166;4.474;2023-03-07T03:54:43;188.65;;;178.38;;
25932;SDS011;13731;51.166;4.474;2023-03-07T03:57:09;185.68;;;174.88;;
25932;SDS011;13731;51.166;4.474;2023-03-07T03:59:39;197.82;;;185.60;;
25932;SDS011;13731;51.166;4.474;2023-03-07T04:02:06;186.57;;;176.30;;
25932;SDS011;13731;51.166;4.474;2023-03-07T04:04:32;177.73;;;167.63;;
25932;SDS011;13731;51.166;4.474;2023-03-07T04:06:58;171.73;;;161.50;;
25932;SDS011;13731;51.166;4.474;2023-03-07T04:09:24;177.35;;;167.10;;
25932;SDS011;13731;51.166;4.474;2023-03-07T04:11:52;193.98;;;182.75;;
25932;SDS011;13731;51.166;4.474;2023-03-07T04:14:18;183.77;;;173.32;;
25932;SDS011;13731;51.166;4.474;2023-03-07T04:16:44;186.68;;;175.98;;
25932;SDS011;13731;51.166;4.474;2023-03-07T04:19:10;190.90;;;179.48;;
25932;SDS011;13731;51.166;4.474;2023-03-07T04:21:37;217.70;;;205.05;;
25932;SDS011;13731;51.166;4.474;2023-03-07T04:24:06;187.52;;;176.85;;
25932;SDS011;13731;51.166;4.474;2023-03-07T04:26:33;238.38;;;223.43;;
25932;SDS011;13731;51.166;4.474;2023-03-07T04:28:59;196.25;;;185.07;;
25932;SDS011;13731;51.166;4.474;2023-03-07T04:31:46;181.30;;;170.95;;
25932;SDS011;13731;51.166;4.474;2023-03-07T04:34:12;194.35;;;183.30;;
25932;SDS011;13731;51.166;4.474;2023-03-07T04:36:38;198.18;;;186.75;;
25932;SDS011;13731;51.166;4.474;2023-03-07T04:39:04;189.07;;;177.93;;
25932;SDS011;13731;51.166;4.474;2023-03-07T04:41:31;175.05;;;164.25;;
25932;SDS011;13731;51.166;4.474;2023-03-07T04:44:17;177.43;;;166.70;;
25932;SDS011;13731;51.166;4.474;2023-03-07T04:46:45;296.83;;;278.38;;
25932;SDS011;13731;51.166;4.474;2023-03-07T04:49:11;172.35;;;162.10;;
25932;SDS011;13731;51.166;4.474;2023-03-07T04:51:39;170.98;;;160.90;;
25932;SDS011;13731;51.166;4.474;2023-03-07T04:54:05;186.35;;;175.60;;
25932;SDS011;13731;51.166;4.474;2023-03-07T04:56:31;167.38;;;157.40;;
25932;SDS011;13731;51.166;4.474;2023-03-07T04:58:58;170.20;;;159.80;;
25932;SDS011;13731;51.166;4.474;2023-03-07T05:01:24;175.95;;;165.55;;
25932;SDS011;13731;51.166;4.474;2023-03-07T05:03:51;168.25;;;158.20;;
25932;SDS011;13731;51.166;4.474;2023-03-07T05:06:18;196.35;;;184.50;;
25932;SDS011;13731;51.166;4.474;2023-03-07T05:08:47;190.40;;;179.20;;
25932;SDS011;13731;51.166;4.474;2023-03-07T05:11:14;235.63;;;221.93;;
25932;SDS011;13731;51.166;4.474;2023-03-07T05:13:40;193.27;;;181.60;;
25932;SDS011;13731;51.166;4.474;2023-03-07T05:16:07;196.40;;;184.73;;
25932;SDS011;13731;51.166;4.474;2023-03-07T05:18:33;189.80;;;178.65;;
25932;SDS011;13731;51.166;4.474;2023-03-07T05:20:59;203.77;;;191.43;;
25932;SDS011;13731;51.166;4.474;2023-03-07T05:23:26;202.10;;;190.32;;
25932;SDS011;13731;51.166;4.474;2023-03-07T05:25:54;272.23;;;254.07;;
25932;SDS011;13731;51.166;4.474;2023-03-07T05:28:20;208.30;;;195.98;;
25932;SDS011;13731;51.166;4.474;2023-03-07T05:30:46;194.80;;;183.43;;
25932;SDS011;13731;51.166;4.474;2023-03-07T05:33:13;275.92;;;257.27;;
25932;SDS011;13731;51.166;4.474;2023-03-07T05:35:40;184.85;;;174.07;;
25932;SDS011;13731;51.166;4.474;2023-03-07T05:38:07;191.25;;;179.73;;
25932;SDS011;13731;51.166;4.474;2023-03-07T05:40:34;201.73;;;189.98;;
25932;SDS011;13731;51.166;4.474;2023-03-07T05:43:00;240.25;;;224.90;;
25932;SDS011;13731;51.166;4.474;2023-03-07T05:45:26;186.07;;;175.27;;
25932;SDS011;13731;51.166;4.474;2023-03-07T05:47:52;264.90;;;248.65;;
25932;SDS011;13731;51.166;4.474;2023-03-07T05:50:18;198.75;;;187.25;;
25932;SDS011;13731;51.166;4.474;2023-03-07T05:52:46;287.63;;;268.40;;
25932;SDS011;13731;51.166;4.474;2023-03-07T05:55:12;179.43;;;169.05;;
25932;SDS011;13731;51.166;4.474;2023-03-07T05:57:38;238.55;;;223.65;;
25932;SDS011;13731;51.166;4.474;2023-03-07T06:00:04;226.38;;;213.20;;
25932;SDS011;13731;51.166;4.474;2023-03-07T06:02:39;231.88;;;217.50;;
25932;SDS011;13731;51.166;4.474;2023-03-07T06:05:08;194.15;;;182.55;;
25932;SDS011;13731;51.166;4.474;2023-03-07T06:07:34;292.73;;;273.60;;
25932;SDS011;13731;51.166;4.474;2023-03-07T06:10:00;276.95;;;257.23;;
25932;SDS011;13731;51.166;4.474;2023-03-07T06:12:26;200.20;;;188.68;;
25932;SDS011;13731;51.166;4.474;2023-03-07T06:14:52;252.27;;;238.07;;
25932;SDS011;13731;51.166;4.474;2023-03-07T06:17:18;204.00;;;192.75;;
25932;SDS011;13731;51.166;4.474;2023-03-07T06:19:44;196.77;;;185.55;;
25932;SDS011;13731;51.166;4.474;2023-03-07T06:22:10;206.15;;;194.13;;
25932;SDS011;13731;51.166;4.474;2023-03-07T06:24:37;214.48;;;202.27;;
25932;SDS011;13731;51.166;4.474;2023-03-07T06:27:03;186.52;;;175.48;;
25932;SDS011;13731;51.166;4.474;2023-03-07T06:29:29;180.38;;;170.15;;
25932;SDS011;13731;51.166;4.474;2023-03-07T06:31:56;267.48;;;250.00;;
25932;SDS011;13731;51.166;4.474;2023-03-07T06:34:22;286.88;;;269.50;;
25932;SDS011;13731;51.166;4.474;2023-03-07T06:36:49;181.93;;;171.82;;
25932;SDS011;13731;51.166;4.474;2023-03-07T06:39:15;231.93;;;216.50;;
25932;SDS011;13731;51.166;4.474;2023-03-07T06:41:46;359.73;;;332.13;;
25932;SDS011;13731;51.166;4.474;2023-03-07T06:44:14;192.80;;;181.98;;
25932;SDS011;13731;51.166;4.474;2023-03-07T06:46:41;187.52;;;177.48;;
25932;SDS011;13731;51.166;4.474;2023-03-07T06:49:12;191.52;;;180.70;;
25932;SDS011;13731;51.166;4.474;2023-03-07T06:51:38;243.40;;;228.57;;
25932;SDS011;13731;51.166;4.474;2023-03-07T06:54:05;185.18;;;175.38;;
25932;SDS011;13731;51.166;4.474;2023-03-07T06:56:32;216.63;;;205.00;;
25932;SDS011;13731;51.166;4.474;2023-03-07T06:58:59;220.38;;;208.15;;
25932;SDS011;13731;51.166;4.474;2023-03-07T07:01:26;211.27;;;199.60;;
25932;SDS011;13731;51.166;4.474;2023-03-07T07:03:54;237.55;;;224.73;;
25932;SDS011;13731;51.166;4.474;2023-03-07T07:06:21;248.90;;;235.40;;
25932;SDS011;13731;51.166;4.474;2023-03-07T07:08:47;234.93;;;222.35;;
25932;SDS011;13731;51.166;4.474;2023-03-07T07:11:14;193.52;;;182.57;;
25932;SDS011;13731;51.166;4.474;2023-03-07T07:13:40;227.55;;;215.13;;
25932;SDS011;13731;51.166;4.474;2023-03-07T07:16:07;209.27;;;197.68;;
25932;SDS011;13731;51.166;4.474;2023-03-07T07:18:36;215.07;;;203.27;;
25932;SDS011;13731;51.166;4.474;2023-03-07T07:21:04;207.15;;;195.80;;
25932;SDS011;13731;51.166;4.474;2023-03-07T07:23:31;195.85;;;184.77;;
25932;SDS011;13731;51.166;4.474;2023-03-07T07:25:58;212.73;;;200.80;;
25932;SDS011;13731;51.166;4.474;2023-03-07T07:28:24;221.75;;;209.30;;
25932;SDS011;13731;51.166;4.474;2023-03-07T07:30:51;175.80;;;165.18;;
25932;SDS011;13731;51.166;4.474;2023-03-07T07:33:18;204.13;;;193.23;;
25932;SDS011;13731;51.166;4.474;2023-03-07T07:35:47;214.23;;;201.77;;
25932;SDS011;13731;51.166;4.474;2023-03-07T07:38:14;196.77;;;186.25;;
25932;SDS011;13731;51.166;4.474;2023-03-07T07:40:41;158.85;;;149.63;;
25932;SDS011;13731;51.166;4.474;2023-03-07T07:43:10;208.15;;;197.38;;
25932;SDS011;13731;51.166;4.474;2023-03-07T07:45:47;208.18;;;196.60;;
25932;SDS011;13731;51.166;4.474;2023-03-07T07:48:17;196.63;;;184.85;;
25932;SDS011;13731;51.166;4.474;2023-03-07T07:50:45;196.55;;;186.25;;
25932;SDS011;13731;51.166;4.474;2023-03-07T07:53:12;203.68;;;193.32;;
25932;SDS011;13731;51.166;4.474;2023-03-07T07:55:39;217.95;;;206.60;;
25932;SDS011;13731;51.166;4.474;2023-03-07T07:58:05;188.05;;;178.60;;
25932;SDS011;13731;51.166;4.474;2023-03-07T08:00:31;249.27;;;234.50;;
25932;SDS011;13731;51.166;4.474;2023-03-07T08:02:57;237.35;;;224.57;;
25932;SDS011;13731;51.166;4.474;2023-03-07T08:05:23;223.63;;;212.57;;
25932;SDS011;13731;51.166;4.474;2023-03-07T08:07:49;194.88;;;184.60;;
25932;SDS011;13731;51.166;4.474;2023-03-07T08:10:16;191.30;;;181.82;;
25932;SDS011;13731;51.166;4.474;2023-03-07T08:12:42;178.52;;;169.30;;
25932;SDS011;13731;51.166;4.474;2023-03-07T08:15:09;169.13;;;160.13;;
25932;SDS011;13731;51.166;4.474;2023-03-07T08:17:36;188.55;;;178.75;;
25932;SDS011;13731;51.166;4.474;2023-03-07T08:20:02;185.45;;;175.73;;
25932;SDS011;13731;51.166;4.474;2023-03-07T08:22:37;181.90;;;172.23;;
25932;SDS011;13731;51.166;4.474;2023-03-07T08:25:04;182.55;;;173.10;;
25932;SDS011;13731;51.166;4.474;2023-03-07T08:27:32;178.23;;;169.00;;
25932;SDS011;13731;51.166;4.474;2023-03-07T08:29:58;184.23;;;174.13;;
25932;SDS011;13731;51.166;4.474;2023-03-07T08:32:26;178.48;;;168.85;;
25932;SDS011;13731;51.166;4.474;2023-03-07T08:34:52;186.10;;;176.45;;
25932;SDS011;13731;51.166;4.474;2023-03-07T08:37:18;171.93;;;162.45;;
25932;SDS011;13731;51.166;4.474;2023-03-07T08:39:44;182.68;;;173.27;;
25932;SDS011;13731;51.166;4.474;2023-03-07T08:42:10;162.18;;;153.82;;
25932;SDS011;13731;51.166;4.474;2023-03-07T08:44:36;166.25;;;157.48;;
25932;SDS011;13731;51.166;4.474;2023-03-07T08:47:01;176.52;;;167.15;;
25932;SDS011;13731;51.166;4.474;2023-03-07T08:49:27;161.90;;;153.25;;
25932;SDS011;13731;51.166;4.474;2023-03-07T08:51:53;164.98;;;156.25;;
25932;SDS011;13731;51.166;4.474;2023-03-07T08:54:19;162.10;;;153.20;;
25932;SDS011;13731;51.166;4.474;2023-03-07T08:56:45;163.70;;;155.13;;
25932;SDS011;13731;51.166;4.474;2023-03-07T08:59:11;174.30;;;165.02;;
25932;SDS011;13731;51.166;4.474;2023-03-07T09:01:36;151.98;;;143.77;;
25932;SDS011;13731;51.166;4.474;2023-03-07T09:04:02;165.63;;;157.02;;
25932;SDS011;13731;51.166;4.474;2023-03-07T09:06:29;162.27;;;153.40;;
25932;SDS011;13731;51.166;4.474;2023-03-07T09:08:55;144.80;;;136.93;;
25932;SDS011;13731;51.166;4.474;2023-03-07T09:11:21;145.60;;;137.90;;
25932;SDS011;13731;51.166;4.474;2023-03-07T09:13:47;122.72;;;116.13;;
25932;SDS011;13731;51.166;4.474;2023-03-07T09:16:13;150.77;;;143.05;;
25932;SDS011;13731;51.166;4.474;2023-03-07T09:18:38;140.02;;;132.77;;
25932;SDS011;13731;51.166;4.474;2023-03-07T09:21:04;180.15;;;171.00;;
25932;SDS011;13731;51.166;4.474;2023-03-07T09:23:30;147.85;;;140.13;;
25932;SDS011;13731;51.166;4.474;2023-03-07T09:25:57;156.43;;;148.38;;
25932;SDS011;13731;51.166;4.474;2023-03-07T09:28:25;159.10;;;150.77;;
25932;SDS011;13731;51.166;4.474;2023-03-07T09:30:51;145.82;;;138.07;;
25932;SDS011;13731;51.166;4.474;2023-03-07T09:33:17;150.60;;;142.70;;
25932;SDS011;13731;51.166;4.474;2023-03-07T09:35:43;153.77;;;145.80;;
25932;SDS011;13731;51.166;4.474;2023-03-07T09:38:09;142.18;;;134.23;;
25932;SDS011;13731;51.166;4.474;2023-03-07T09:40:34;135.48;;;128.20;;
25932;SDS011;13731;51.166;4.474;2023-03-07T09:43:17;136.20;;;128.88;;
25932;SDS011;13731;51.166;4.474;2023-03-07T09:51:18;138.82;;;131.48;;
25932;SDS011;13731;51.166;4.474;2023-03-07T09:56:46;117.32;;;111.32;;
25932;SDS011;13731;51.166;4.474;2023-03-07T10:04:44;107.15;;;101.53;;
25932;SDS011;13731;51.166;4.474;2023-03-07T10:07:22;115.15;;;109.15;;
25932;SDS011;13731;51.166;4.474;2023-03-07T10:09:53;98.43;;;93.22;;
25932;SDS011;13731;51.166;4.474;2023-03-07T10:15:49;103.22;;;97.60;;
25932;SDS011;13731;51.166;4.474;2023-03-07T10:18:04;99.95;;;94.65;;
25932;SDS011;13731;51.166;4.474;2023-03-07T10:20:48;99.60;;;94.45;;
25932;SDS011;13731;51.166;4.474;2023-03-07T10:23:27;98.95;;;93.90;;
25932;SDS011;13731;51.166;4.474;2023-03-07T10:26:08;104.43;;;99.18;;
25932;SDS011;13731;51.166;4.474;2023-03-07T10:28:40;99.85;;;94.95;;
25932;SDS011;13731;51.166;4.474;2023-03-07T10:31:31;96.57;;;91.97;;
25932;SDS011;13731;51.166;4.474;2023-03-07T10:33:54;93.15;;;88.65;;
25932;SDS011;13731;51.166;4.474;2023-03-07T10:36:21;90.78;;;86.35;;
25932;SDS011;13731;51.166;4.474;2023-03-07T10:41:58;90.65;;;86.22;;
25932;SDS011;13731;51.166;4.474;2023-03-07T10:44:24;98.63;;;93.65;;
25932;SDS011;13731;51.166;4.474;2023-03-07T10:46:56;99.75;;;94.40;;
25932;SDS011;13731;51.166;4.474;2023-03-07T10:49:30;95.13;;;90.32;;
25932;SDS011;13731;51.166;4.474;2023-03-07T10:54:37;109.15;;;103.28;;
25932;SDS011;13731;51.166;4.474;2023-03-07T10:59:36;107.53;;;101.90;;
25932;SDS011;13731;51.166;4.474;2023-03-07T11:05:23;105.70;;;100.10;;
25932;SDS011;13731;51.166;4.474;2023-03-07T11:07:55;102.32;;;97.03;;
25932;SDS011;13731;51.166;4.474;2023-03-07T11:10:23;102.28;;;97.22;;
25932;SDS011;13731;51.166;4.474;2023-03-07T11:13:14;110.75;;;105.13;;
25932;SDS011;13731;51.166;4.474;2023-03-07T11:15:44;105.13;;;99.85;;
25932;SDS011;13731;51.166;4.474;2023-03-07T11:18:27;101.00;;;96.07;;
25932;SDS011;13731;51.166;4.474;2023-03-07T11:20:54;106.57;;;101.32;;
25932;SDS011;13731;51.166;4.474;2023-03-07T11:23:22;94.97;;;90.22;;
25932;SDS011;13731;51.166;4.474;2023-03-07T11:25:55;89.82;;;85.18;;
25932;SDS011;13731;51.166;4.474;2023-03-07T11:28:41;92.80;;;88.30;;
25932;SDS011;13731;51.166;4.474;2023-03-07T11:34:00;88.05;;;83.65;;
25932;SDS011;13731;51.166;4.474;2023-03-07T11:39:06;108.70;;;103.53;;
25932;SDS011;13731;51.166;4.474;2023-03-07T11:42:20;99.90;;;95.00;;
25932;SDS011;13731;51.166;4.474;2023-03-07T11:44:52;112.88;;;107.40;;
25932;SDS011;13731;51.166;4.474;2023-03-07T12:14:29;126.03;;;119.63;;
25932;SDS011;13731;51.166;4.474;2023-03-07T12:17:04;135.40;;;128.27;;
25932;SDS011;13731;51.166;4.474;2023-03-07T12:22:39;125.30;;;118.75;;
25932;SDS011;13731;51.166;4.474;2023-03-07T12:31:10;128.98;;;122.28;;
25932;SDS011;13731;51.166;4.474;2023-03-07T12:36:29;138.77;;;130.80;;
25932;SDS011;13731;51.166;4.474;2023-03-07T12:45:19;131.40;;;123.50;;
25932;SDS011;13731;51.166;4.474;2023-03-07T12:53:08;125.65;;;117.75;;
25932;SDS011;13731;51.166;4.474;2023-03-07T12:58:37;148.40;;;138.82;;
25932;SDS011;13731;51.166;4.474;2023-03-07T13:06:29;146.27;;;136.85;;
25932;SDS011;13731;51.166;4.474;2023-03-07T13:08:59;137.23;;;128.00;;
25932;SDS011;13731;51.166;4.474;2023-03-07T13:11:29;126.10;;;117.75;;
25932;SDS011;13731;51.166;4.474;2023-03-07T13:13:58;128.52;;;119.97;;
25932;SDS011;13731;51.166;4.474;2023-03-07T13:22:00;140.20;;;130.70;;
25932;SDS011;13731;51.166;4.474;2023-03-07T13:24:42;144.20;;;134.10;;
25932;SDS011;13731;51.166;4.474;2023-03-07T13:33:20;139.00;;;129.35;;
25932;SDS011;13731;51.166;4.474;2023-03-07T13:35:55;149.30;;;138.48;;
25932;SDS011;13731;51.166;4.474;2023-03-07T13:40:52;146.27;;;135.85;;
25932;SDS011;13731;51.166;4.474;2023-03-07T13:45:48;136.85;;;126.93;;
25932;SDS011;13731;51.166;4.474;2023-03-07T13:56:01;133.57;;;124.55;;
25932;SDS011;13731;51.166;4.474;2023-03-07T13:58:43;121.95;;;113.60;;
25932;SDS011;13731;51.166;4.474;2023-03-07T14:01:15;122.30;;;114.15;;
25932;SDS011;13731;51.166;4.474;2023-03-07T14:03:47;135.73;;;127.07;;
25932;SDS011;13731;51.166;4.474;2023-03-07T14:09:00;123.00;;;115.63;;
25932;SDS011;13731;51.166;4.474;2023-03-07T14:19:40;109.53;;;103.63;;
25932;SDS011;13731;51.166;4.474;2023-03-07T14:25:30;102.25;;;96.70;;
25932;SDS011;13731;51.166;4.474;2023-03-07T14:28:02;94.72;;;89.47;;
25932;SDS011;13731;51.166;4.474;2023-03-07T14:30:50;91.78;;;86.63;;
25932;SDS011;13731;51.166;4.474;2023-03-07T14:33:18;88.22;;;83.53;;
25932;SDS011;13731;51.166;4.474;2023-03-07T14:35:44;88.97;;;84.35;;
25932;SDS011;13731;51.166;4.474;2023-03-07T14:38:19;111.95;;;106.07;;
25932;SDS011;13731;51.166;4.474;2023-03-07T14:49:44;105.18;;;99.57;;
25932;SDS011;13731;51.166;4.474;2023-03-07T14:52:15;98.00;;;92.78;;
25932;SDS011;13731;51.166;4.474;2023-03-07T14:54:43;91.63;;;86.63;;
25932;SDS011;13731;51.166;4.474;2023-03-07T14:57:31;121.75;;;115.43;;
25932;SDS011;13731;51.166;4.474;2023-03-07T15:02:46;99.32;;;93.93;;
25932;SDS011;13731;51.166;4.474;2023-03-07T15:05:18;109.45;;;103.55;;
25932;SDS011;13731;51.166;4.474;2023-03-07T15:07:50;116.30;;;110.22;;
25932;SDS011;13731;51.166;4.474;2023-03-07T15:10:20;109.97;;;104.47;;
25932;SDS011;13731;51.166;4.474;2023-03-07T15:13:01;98.32;;;93.35;;
25932;SDS011;13731;51.166;4.474;2023-03-07T15:15:50;92.40;;;87.88;;
25932;SDS011;13731;51.166;4.474;2023-03-07T15:18:22;104.00;;;98.75;;
25932;SDS011;13731;51.166;4.474;2023-03-07T15:20:53;104.57;;;99.50;;
25932;SDS011;13731;51.166;4.474;2023-03-07T15:23:21;122.68;;;116.53;;
25932;SDS011;13731;51.166;4.474;2023-03-07T15:25:53;150.02;;;142.63;;
25932;SDS011;13731;51.166;4.474;2023-03-07T15:30:58;114.30;;;108.45;;
25932;SDS011;13731;51.166;4.474;2023-03-07T15:33:26;109.95;;;104.65;;
25932;SDS011;13731;51.166;4.474;2023-03-07T15:36:05;131.52;;;125.10;;
25932;SDS011;13731;51.166;4.474;2023-03-07T15:38:42;129.27;;;122.65;;
25932;SDS011;13731;51.166;4.474;2023-03-07T15:41:26;111.28;;;105.45;;
25932;SDS011;13731;51.166;4.474;2023-03-07T15:49:43;121.70;;;115.13;;
25932;SDS011;13731;51.166;4.474;2023-03-07T15:52:30;116.75;;;110.78;;
25932;SDS011;13731;51.166;4.474;2023-03-07T15:55:18;165.30;;;156.40;;
25932;SDS011;13731;51.166;4.474;2023-03-07T15:57:49;127.05;;;120.35;;
25932;SDS011;13731;51.166;4.474;2023-03-07T16:00:19;132.98;;;126.18;;
25932;SDS011;13731;51.166;4.474;2023-03-07T16:02:48;131.25;;;124.60;;
25932;SDS011;13731;51.166;4.474;2023-03-07T16:07:48;144.48;;;137.10;;
25932;SDS011;13731;51.166;4.474;2023-03-07T16:10:16;126.90;;;120.35;;
25932;SDS011;13731;51.166;4.474;2023-03-07T16:12:43;145.40;;;137.70;;
25932;SDS011;13731;51.166;4.474;2023-03-07T16:15:18;106.85;;;101.15;;
25932;SDS011;13731;51.166;4.474;2023-03-07T16:17:46;113.38;;;107.45;;
25932;SDS011;13731;51.166;4.474;2023-03-07T16:20:26;112.05;;;106.07;;
25932;SDS011;13731;51.166;4.474;2023-03-07T16:22:53;115.70;;;109.80;;
25932;SDS011;13731;51.166;4.474;2023-03-07T16:25:20;109.20;;;103.38;;
25932;SDS011;13731;51.166;4.474;2023-03-07T16:27:51;115.85;;;109.85;;
25932;SDS011;13731;51.166;4.474;2023-03-07T16:30:22;119.50;;;113.30;;
25932;SDS011;13731;51.166;4.474;2023-03-07T16:35:17;110.43;;;104.38;;
25932;SDS011;13731;51.166;4.474;2023-03-07T16:37:53;115.47;;;109.13;;
25932;SDS011;13731;51.166;4.474;2023-03-07T16:40:20;111.68;;;105.45;;
25932;SDS011;13731;51.166;4.474;2023-03-07T16:42:47;120.32;;;114.00;;
25932;SDS011;13731;51.166;4.474;2023-03-07T16:45:18;111.28;;;105.20;;
25932;SDS011;13731;51.166;4.474;2023-03-07T16:47:52;107.35;;;101.53;;
25932;SDS011;13731;51.166;4.474;2023-03-07T16:50:21;103.10;;;96.97;;
25932;SDS011;13731;51.166;4.474;2023-03-07T16:52:49;94.13;;;89.10;;
25932;SDS011;13731;51.166;4.474;2023-03-07T16:55:16;109.40;;;103.43;;
25932;SDS011;13731;51.166;4.474;2023-03-07T16:58:00;103.72;;;98.25;;